Time;durP1;ratioP1;P1;durP2;ratioP2;P2;SDS_P1;SDS_P2;PMS_P1;PMS_P2;Temp;Humidity;BMP_temperature;BMP_pressure;BME280_temperature;BME280_humidity;BME280_pressure;Samples;Min_cycle;Max_cycle;Signal;HPM_P1;HPM_P2
2021/06/17 00:00:18;;;;;;;4.50;2.87;;;;;;;14.61;100.00;100616.02;1816734;79;20971;-37
2021/06/17 00:02:46;;;;;;;8.80;2.85;;;;;;;14.61;100.00;100606.91;1816837;79;21476;-37
2021/06/17 00:05:16;;;;;;;7.37;2.83;;;;;;;14.61;100.00;100595.19;1816859;78;20916;-37
2021/06/17 00:07:43;;;;;;;3.60;3.25;;;;;;;14.59;100.00;100583.97;1816841;78;20995;-37
2021/06/17 00:10:14;;;;;;;5.22;3.70;;;;;;;14.59;100.00;100589.17;1816712;78;21129;-36
2021/06/17 00:12:42;;;;;;;7.22;3.20;;;;;;;14.59;100.00;100574.84;1816931;79;21254;-36
2021/06/17 00:15:10;;;;;;;10.10;4.47;;;;;;;14.57;100.00;100564.94;1816836;78;21054;-37
2021/06/17 00:17:39;;;;;;;4.80;4.20;;;;;;;14.58;100.00;100568.38;1816650;79;20986;-37
2021/06/17 00:20:07;;;;;;;6.92;4.40;;;;;;;14.59;100.00;100573.98;1816777;79;21536;-37
2021/06/17 00:22:34;;;;;;;5.62;4.33;;;;;;;14.60;100.00;100578.29;1816697;78;22349;-36
2021/06/17 00:25:00;;;;;;;4.80;3.98;;;;;;;14.60;100.00;100576.55;1816650;78;20921;-37
2021/06/17 00:27:27;;;;;;;4.62;4.22;;;;;;;14.60;100.00;100565.27;1816946;79;20963;-37
2021/06/17 00:29:54;;;;;;;7.05;3.67;;;;;;;14.60;100.00;100572.64;1816662;79;21017;-37
2021/06/17 00:32:20;;;;;;;5.92;3.77;;;;;;;14.60;100.00;100583.50;1817035;79;20888;-37
2021/06/17 00:34:46;;;;;;;4.65;3.92;;;;;;;14.61;100.00;100596.92;1816933;78;21104;-37
2021/06/17 00:37:13;;;;;;;6.53;4.12;;;;;;;14.61;100.00;100594.31;1816740;78;21457;-35
2021/06/17 00:39:40;;;;;;;4.67;3.60;;;;;;;14.59;100.00;100593.08;1816852;79;20987;-36
2021/06/17 00:42:08;;;;;;;7.72;3.95;;;;;;;14.59;100.00;100583.97;1816591;77;20955;-35
2021/06/17 00:44:34;;;;;;;5.45;3.42;;;;;;;14.60;100.00;100586.11;1816728;79;20924;-35
2021/06/17 00:47:01;;;;;;;6.62;3.52;;;;;;;14.60;100.00;100594.78;1816807;78;21122;-36
2021/06/17 00:49:28;;;;;;;5.83;3.50;;;;;;;14.59;100.00;100607.41;1816679;79;21019;-36
2021/06/17 00:51:54;;;;;;;6.67;3.92;;;;;;;14.62;100.00;100604.70;1816804;78;20944;-35
2021/06/17 00:54:33;;;;;;;5.00;3.30;;;;;;;14.63;100.00;100601.62;1818066;78;21097;-36
2021/06/17 00:57:05;;;;;;;9.35;3.77;;;;;;;14.62;100.00;100595.58;1827548;78;21050;-36
2021/06/17 00:59:32;;;;;;;3.92;3.52;;;;;;;14.61;100.00;100595.63;1827503;78;21128;-37
2021/06/17 01:01:59;;;;;;;6.83;3.83;;;;;;;14.62;100.00;100599.92;1827312;78;20935;-37
2021/06/17 01:04:26;;;;;;;7.28;3.60;;;;;;;14.66;100.00;100593.74;1827464;78;20916;-37
2021/06/17 01:06:53;;;;;;;13.98;3.70;;;;;;;14.66;100.00;100588.06;1827370;78;20971;-37
2021/06/17 01:09:43;;;;;;;6.22;3.52;;;;;;;14.66;100.00;100578.95;1827406;78;20959;-37
2021/06/17 01:12:37;;;;;;;5.37;3.12;;;;;;;14.66;100.00;100576.80;1827339;78;21156;-38
2021/06/17 01:15:06;;;;;;;3.52;3.22;;;;;;;14.64;100.00;100583.79;1827822;78;20943;-37
2021/06/17 01:17:34;;;;;;;6.05;3.40;;;;;;;14.64;100.00;100568.16;1827469;78;21480;-37
2021/06/17 01:20:20;;;;;;;8.78;3.45;;;;;;;14.65;100.00;100564.66;1827441;78;21019;-37
2021/06/17 01:23:02;;;;;;;4.92;3.65;;;;;;;14.68;100.00;100564.58;1827426;78;21588;-37
2021/06/17 01:26:11;;;;;;;4.92;3.70;;;;;;;14.77;100.00;100559.51;1827243;78;21073;-37
2021/06/17 01:28:38;;;;;;;6.80;3.75;;;;;;;14.86;100.00;100564.42;1827389;78;20959;-38
2021/06/17 01:31:11;;;;;;;3.90;3.60;;;;;;;14.93;100.00;100576.33;1827350;78;20917;-37
2021/06/17 01:33:41;;;;;;;5.35;4.10;;;;;;;14.97;100.00;100573.17;1827364;78;20963;-38
2021/06/17 01:36:17;;;;;;;7.10;3.62;;;;;;;15.00;100.00;100575.67;1795506;78;20986;-37
2021/06/17 01:38:48;;;;;;;4.92;4.00;;;;;;;15.02;100.00;100581.68;1827362;78;21141;-38
2021/06/17 01:41:15;;;;;;;3.90;3.50;;;;;;;15.02;100.00;100582.98;1827255;77;21473;-38
2021/06/17 01:43:42;;;;;;;4.10;3.52;;;;;;;15.02;100.00;100588.19;1793979;78;21436;-38
2021/06/17 01:46:10;;;;;;;6.75;3.60;;;;;;;14.99;100.00;100592.22;1827314;78;20928;-38
2021/06/17 01:48:37;;;;;;;3.60;3.25;;;;;;;14.94;100.00;100602.79;1827477;78;21497;-38
2021/06/17 01:51:04;;;;;;;8.68;3.72;;;;;;;14.90;100.00;100603.80;1827317;78;21469;-37
2021/06/17 01:53:31;;;;;;;5.50;3.72;;;;;;;14.86;100.00;100607.42;1827178;78;21306;-37
2021/06/17 01:55:58;;;;;;;5.65;3.67;;;;;;;14.85;100.00;100595.73;1827403;78;20939;-38
2021/06/17 01:58:26;;;;;;;10.80;3.67;;;;;;;14.86;100.00;100607.42;1827367;78;20962;-38
2021/06/17 02:00:53;;;;;;;4.05;3.67;;;;;;;14.88;100.00;100608.22;1827365;78;21046;-38
2021/06/17 02:03:21;;;;;;;8.98;4.03;;;;;;;14.90;100.00;100606.41;1743088;78;21513;-38
2021/06/17 02:05:48;;;;;;;4.22;3.83;;;;;;;14.94;100.00;100606.70;1827262;78;21006;-38
2021/06/17 02:08:15;;;;;;;4.35;3.95;;;;;;;14.99;100.00;100610.46;1827362;78;20955;-37
2021/06/17 02:10:42;;;;;;;4.85;3.72;;;;;;;15.03;100.00;100601.62;1827342;78;20987;-39
2021/06/17 02:13:11;;;;;;;4.15;3.72;;;;;;;15.10;100.00;100607.48;1827432;78;20974;-37
2021/06/17 02:15:38;;;;;;;12.60;4.20;;;;;;;15.17;100.00;100606.83;1827312;78;21821;-38
2021/06/17 02:18:05;;;;;;;4.17;3.87;;;;;;;15.23;100.00;100607.91;1827509;78;20899;-38
2021/06/17 02:20:32;;;;;;;9.98;3.72;;;;;;;15.27;100.00;100594.28;1827446;78;20994;-38
2021/06/17 02:23:03;;;;;;;11.80;4.40;;;;;;;15.32;100.00;100598.91;1827360;78;21627;-38
2021/06/17 02:25:30;;;;;;;4.92;4.10;;;;;;;15.36;100.00;100603.09;1827348;78;20892;-38
2021/06/17 02:28:11;;;;;;;8.68;3.62;;;;;;;15.40;100.00;100613.81;1827403;78;21098;-38
2021/06/17 02:30:37;;;;;;;4.28;3.62;;;;;;;15.44;100.00;100610.18;1817680;78;20955;-38
2021/06/17 02:33:07;;;;;;;6.90;3.70;;;;;;;15.50;100.00;100615.17;1827465;78;20943;-38
2021/06/17 02:35:34;;;;;;;5.85;4.05;;;;;;;15.54;100.00;100612.48;1795327;78;21023;-37
2021/06/17 02:38:05;;;;;;;7.25;4.03;;;;;;;15.57;100.00;100618.88;1827425;78;21496;-37
2021/06/17 02:40:34;;;;;;;7.00;4.10;;;;;;;15.59;100.00;100617.90;1827404;78;21819;-38
2021/06/17 02:43:01;;;;;;;5.28;3.65;;;;;;;15.64;100.00;100631.62;1827139;77;22098;-38
2021/06/17 02:45:29;;;;;;;15.08;4.37;;;;;;;15.69;100.00;100631.92;1793883;78;21528;-37
2021/06/17 02:47:56;;;;;;;7.42;3.90;;;;;;;15.71;100.00;100627.03;1827449;78;21508;-36
2021/06/17 02:50:23;;;;;;;9.13;4.25;;;;;;;15.76;100.00;100625.56;1827504;78;20983;-37
2021/06/17 02:52:49;;;;;;;4.55;3.75;;;;;;;15.79;100.00;100618.48;1827401;78;21125;-38
2021/06/17 02:55:16;;;;;;;6.95;4.30;;;;;;;15.85;100.00;100617.84;1826066;78;21006;-36
2021/06/17 03:00:52;;;;;;;4.72;4.28;;;;;;;16.00;100.00;100607.30;1797702;79;22639;-37
2021/06/17 03:03:36;;;;;;;5.80;4.17;;;;;;;16.00;100.00;100606.00;1757601;80;20924;-37
2021/06/17 03:06:14;;;;;;;9.65;4.03;;;;;;;16.08;100.00;100607.84;1723931;83;21344;-37
2021/06/17 03:09:00;;;;;;;11.50;4.28;;;;;;;16.13;100.00;100608.98;1723590;83;20939;-37
2021/06/17 03:11:30;;;;;;;6.00;4.90;;;;;;;16.20;100.00;100614.34;1695224;83;20939;-37
2021/06/17 03:14:02;;;;;;;4.50;3.95;;;;;;;16.26;100.00;100623.23;1723960;83;21069;-37
2021/06/17 03:16:30;;;;;;;9.78;4.05;;;;;;;16.32;100.00;100634.77;1723992;83;21006;-37
2021/06/17 03:18:59;;;;;;;4.28;3.58;;;;;;;16.36;100.00;100627.20;1723865;83;21141;-39
2021/06/17 03:21:28;;;;;;;4.92;3.75;;;;;;;16.42;100.00;100622.20;1724163;83;20963;-39
2021/06/17 03:23:56;;;;;;;7.17;4.47;;;;;;;16.48;100.00;100619.77;1695357;83;20971;-37
2021/06/17 03:26:23;;;;;;;9.33;3.98;;;;;;;16.52;100.00;100616.11;1723903;83;21022;-38
2021/06/17 03:28:50;;;;;;;5.83;4.40;;;;;;;16.57;100.00;100615.49;1723851;83;20980;-38
2021/06/17 03:31:17;;;;;;;7.00;4.62;;;;;;;16.60;100.00;100620.59;1672333;83;21158;-36
2021/06/17 03:33:44;;;;;;;7.22;4.22;;;;;;;16.65;100.00;100614.70;1695456;83;20939;-37
2021/06/17 03:36:10;;;;;;;7.70;4.87;;;;;;;16.70;100.00;100611.05;1723851;83;21010;-37
2021/06/17 03:38:38;;;;;;;6.58;4.03;;;;;;;16.77;100.00;100613.79;1723793;83;21026;-36
2021/06/17 03:41:05;;;;;;;7.95;4.50;;;;;;;16.84;100.00;100618.31;1723335;83;21067;-38
2021/06/17 03:43:33;;;;;;;6.87;3.77;;;;;;;16.91;100.00;100623.66;1715946;83;21831;-36
2021/06/17 03:46:00;;;;;;;6.20;4.30;;;;;;;17.01;100.00;100628.08;1708524;84;20975;-37
2021/06/17 03:48:26;;;;;;;5.62;3.83;;;;;;;17.12;100.00;100635.02;1708588;84;20991;-37
2021/06/17 03:50:53;;;;;;;5.03;4.12;;;;;;;17.21;100.00;100628.55;1708456;84;21058;-37
2021/06/17 03:53:20;;;;;;;5.90;3.92;;;;;;;17.30;99.58;100622.91;1708562;84;20971;-37
2021/06/17 03:55:48;;;;;;;9.53;4.00;;;;;;;17.40;98.93;100617.25;1708495;84;21978;-37
2021/06/17 03:58:14;;;;;;;5.42;3.62;;;;;;;17.47;98.55;100614.78;1708384;84;21011;-36
2021/06/17 04:00:41;;;;;;;5.75;3.85;;;;;;;17.56;98.05;100614.83;1697432;83;20992;-36
2021/06/17 04:03:09;;;;;;;5.05;4.20;;;;;;;17.63;97.34;100618.85;1666657;84;21019;-37
2021/06/17 04:05:36;;;;;;;4.58;3.72;;;;;;;17.70;96.78;100617.64;1695865;84;22014;-37
2021/06/17 04:08:07;;;;;;;4.50;4.03;;;;;;;17.72;95.42;100617.59;1695831;84;21130;-36
2021/06/17 04:10:33;;;;;;;8.33;4.03;;;;;;;17.74;95.07;100619.67;1695691;84;20960;-37
2021/06/17 04:13:00;;;;;;;4.40;3.65;;;;;;;17.76;94.75;100618.66;1695318;84;21001;-36
2021/06/17 04:15:27;;;;;;;5.92;4.15;;;;;;;17.84;94.66;100621.41;1695444;84;21533;-36
2021/06/17 04:17:58;;;;;;;4.50;3.83;;;;;;;17.92;94.29;100617.97;1695463;84;21063;-37
2021/06/17 04:20:29;;;;;;;4.20;3.87;;;;;;;18.00;93.72;100612.38;1695101;84;21152;-37
2021/06/17 04:22:57;;;;;;;6.80;4.05;;;;;;;18.07;93.27;100608.12;1692618;84;21054;-37
2021/06/17 04:25:24;;;;;;;7.53;4.17;;;;;;;18.19;92.91;100608.45;1695533;84;21000;-37
2021/06/17 04:27:56;;;;;;;10.18;4.22;;;;;;;18.29;92.68;100608.38;1695373;84;21063;-37
2021/06/17 04:30:24;;;;;;;4.17;3.77;;;;;;;18.42;92.38;100602.55;1695363;84;21039;-37
2021/06/17 04:32:52;;;;;;;3.35;3.10;;;;;;;18.53;91.86;100599.79;1695485;84;21189;-37
2021/06/17 04:35:20;;;;;;;7.62;3.58;;;;;;;18.60;91.18;100599.03;1695273;84;21012;-37
2021/06/17 04:37:46;;;;;;;10.18;3.55;;;;;;;18.63;90.52;100594.94;1695665;84;21076;-37
2021/06/17 04:40:15;;;;;;;3.80;3.40;;;;;;;18.68;90.50;100594.69;1695383;84;21618;-38
2021/06/17 04:42:41;;;;;;;4.28;3.45;;;;;;;18.82;90.50;100603.20;1695349;84;20968;-37
2021/06/17 04:45:09;;;;;;;5.87;3.70;;;;;;;18.94;89.97;100599.06;1695348;84;21129;-37
2021/06/17 04:47:37;;;;;;;6.22;3.33;;;;;;;19.07;89.64;100598.00;1695589;83;21039;-37
2021/06/17 04:50:08;;;;;;;10.38;3.75;;;;;;;19.20;89.21;100593.83;1695428;84;21008;-37
2021/06/17 04:52:39;;;;;;;3.83;3.52;;;;;;;19.30;88.26;100601.20;1694914;84;21004;-37
2021/06/17 04:55:07;;;;;;;5.92;3.47;;;;;;;19.34;87.64;100590.95;1695339;84;21023;-37
2021/06/17 04:57:34;;;;;;;6.28;4.00;;;;;;;19.34;87.27;100583.91;1695614;84;21828;-37
2021/06/17 05:00:00;;;;;;;3.80;3.60;;;;;;;19.36;87.26;100594.34;1697789;83;21058;-37
2021/06/17 05:02:27;;;;;;;4.20;3.65;;;;;;;19.41;86.92;100598.87;1710417;83;20999;-37
2021/06/17 05:04:53;;;;;;;4.55;4.00;;;;;;;19.39;86.02;100602.87;1701146;84;21098;-37
2021/06/17 05:12:31;;;;;;;4.97;3.33;;;;;;;19.52;86.56;100625.86;1710504;83;20947;-37
2021/06/17 05:15:00;;;;;;;7.92;3.52;;;;;;;19.62;86.11;100630.16;1700955;84;21563;-36
2021/06/17 05:17:26;;;;;;;3.95;3.65;;;;;;;19.76;85.96;100624.16;1710452;83;20947;-36
2021/06/17 05:19:53;;;;;;;3.92;3.52;;;;;;;19.97;85.66;100630.52;1700907;84;20999;-37
2021/06/17 05:22:20;;;;;;;3.80;3.58;;;;;;;20.18;85.07;100626.66;1710415;83;21143;-37
2021/06/17 05:24:47;;;;;;;4.97;3.20;;;;;;;20.45;84.48;100631.77;1700842;84;20968;-37
2021/06/17 05:27:13;;;;;;;3.40;3.10;;;;;;;20.79;83.33;100628.06;1710421;83;20998;-38
2021/06/17 05:29:39;;;;;;;4.62;3.30;;;;;;;21.15;82.71;100637.80;1701118;84;21006;-37
2021/06/17 05:32:07;;;;;;;3.52;3.05;;;;;;;21.41;79.47;100631.88;1710585;83;20951;-38
2021/06/17 05:34:34;;;;;;;4.25;3.17;;;;;;;21.47;78.70;100633.67;1700881;84;21255;-37
2021/06/17 05:37:00;;;;;;;3.67;3.47;;;;;;;21.46;77.75;100644.28;1710383;83;20904;-37
2021/06/17 05:39:27;;;;;;;6.28;3.40;;;;;;;21.46;77.55;100650.41;1700851;84;20952;-38
2021/06/17 05:41:53;;;;;;;4.78;2.87;;;;;;;21.38;77.51;100646.92;1710416;83;20983;-37
2021/06/17 05:44:21;;;;;;;2.98;2.77;;;;;;;21.37;78.02;100653.61;1682118;85;21002;-38
2021/06/17 05:46:47;;;;;;;6.67;2.70;;;;;;;21.35;78.05;100652.86;1701108;84;21131;-38
2021/06/17 05:49:14;;;;;;;6.30;3.05;;;;;;;21.30;78.05;100668.06;1710497;83;20955;-37
2021/06/17 05:51:41;;;;;;;9.10;3.42;;;;;;;21.30;78.48;100680.77;1700887;84;20968;-37
2021/06/17 05:54:07;;;;;;;5.20;3.37;;;;;;;21.42;78.49;100681.81;1710535;83;20963;-38
2021/06/17 05:56:34;;;;;;;4.80;3.00;;;;;;;21.54;77.71;100683.69;1700881;84;21049;-38
2021/06/17 05:59:00;;;;;;;3.65;2.80;;;;;;;21.68;77.57;100693.89;1710471;83;21149;-38
2021/06/17 06:01:27;;;;;;;6.22;2.98;;;;;;;21.89;77.51;100692.19;1715066;83;21570;-37
2021/06/17 06:03:53;;;;;;;5.37;3.50;;;;;;;22.21;77.25;100696.72;1716444;83;21459;-38
2021/06/17 06:06:20;;;;;;;9.70;3.10;;;;;;;22.55;75.27;100701.64;1716283;83;21013;-37
2021/06/17 06:08:46;;;;;;;6.00;3.02;;;;;;;22.70;74.65;100706.38;1716331;83;21052;-38
2021/06/17 06:11:13;;;;;;;6.87;2.90;;;;;;;22.91;73.67;100708.09;1716560;83;21120;-38
2021/06/17 06:13:39;;;;;;;6.62;2.92;;;;;;;23.05;72.67;100701.89;1716233;83;20970;-38
2021/06/17 06:16:06;;;;;;;3.27;2.98;;;;;;;23.25;72.86;100693.95;1716466;83;21515;-37
2021/06/17 06:18:34;;;;;;;7.53;2.85;;;;;;;23.47;71.02;100687.20;1716267;83;21577;-38
2021/06/17 06:21:00;;;;;;;5.80;2.50;;;;;;;23.57;70.92;100691.83;1716587;83;21053;-38
2021/06/17 06:23:28;;;;;;;4.83;2.70;;;;;;;23.55;70.77;100690.63;1716255;83;21104;-37
2021/06/17 06:25:55;;;;;;;9.30;3.27;;;;;;;23.53;70.59;100685.94;1716174;83;21574;-38
2021/06/17 06:28:22;;;;;;;3.70;3.30;;;;;;;23.47;71.33;100691.16;1716256;83;20994;-37
2021/06/17 06:30:50;;;;;;;5.62;3.27;;;;;;;23.51;71.65;100696.59;1721033;83;20943;-37
2021/06/17 06:33:21;;;;;;;4.87;3.17;;;;;;;23.52;70.92;100689.03;1692099;84;21065;-37
2021/06/17 06:35:48;;;;;;;4.97;3.20;;;;;;;23.50;71.23;100683.02;1692032;84;21111;-37
2021/06/17 06:38:14;;;;;;;5.85;3.12;;;;;;;23.67;71.98;100674.39;1692106;84;20986;-38
2021/06/17 06:40:41;;;;;;;6.72;2.90;;;;;;;24.04;71.49;100680.22;1692029;83;21062;-37
2021/06/17 06:43:09;;;;;;;4.55;2.92;;;;;;;24.38;70.02;100676.42;1692204;84;21525;-38
2021/06/17 06:45:37;;;;;;;3.65;3.22;;;;;;;24.60;69.38;100679.63;1692004;84;21053;-37
2021/06/17 06:48:04;;;;;;;5.83;3.10;;;;;;;24.86;67.38;100678.69;1692125;84;21148;-37
2021/06/17 06:50:31;;;;;;;6.17;2.60;;;;;;;24.98;65.72;100676.41;1691884;84;21552;-37
2021/06/17 06:52:57;;;;;;;3.75;2.98;;;;;;;24.94;66.60;100676.29;1692374;84;22039;-37
2021/06/17 06:55:24;;;;;;;4.70;2.58;;;;;;;25.12;66.57;100672.71;1692089;84;20991;-38
2021/06/17 06:57:50;;;;;;;6.05;3.12;;;;;;;25.24;66.19;100679.73;1691987;84;20963;-37
2021/06/17 07:00:17;;;;;;;6.22;2.85;;;;;;;25.36;66.22;100677.93;1685867;84;21734;-37
2021/06/17 07:02:44;;;;;;;6.05;2.98;;;;;;;25.32;65.68;100676.95;1735290;82;21019;-37
2021/06/17 07:05:11;;;;;;;5.58;3.00;;;;;;;25.09;65.41;100684.86;1735198;82;20972;-38
2021/06/17 07:07:38;;;;;;;9.98;2.85;;;;;;;24.89;66.35;100686.39;1735094;82;20980;-38
2021/06/17 07:10:07;;;;;;;3.40;2.98;;;;;;;24.76;67.42;100689.11;1735179;82;20947;-38
2021/06/17 07:12:34;;;;;;;7.05;3.02;;;;;;;24.88;67.97;100688.67;1735414;82;21103;-38
2021/06/17 07:15:01;;;;;;;8.10;2.90;;;;;;;25.00;66.06;100690.38;1735062;82;21016;-38
2021/06/17 07:17:28;;;;;;;4.65;2.87;;;;;;;25.00;67.48;100698.32;1735244;82;21024;-38
2021/06/17 07:19:55;;;;;;;2.92;2.72;;;;;;;25.07;67.35;100690.76;1735140;82;21498;-37
2021/06/17 07:22:25;;;;;;;3.37;2.80;;;;;;;25.04;67.10;100697.15;1735603;82;21004;-36
2021/06/17 07:24:53;;;;;;;2.95;2.80;;;;;;;25.07;67.62;100689.44;1735273;82;21162;-37
2021/06/17 07:27:22;;;;;;;2.67;2.47;;;;;;;25.23;67.65;100694.39;1735238;82;21519;-38
2021/06/17 07:29:51;;;;;;;4.37;2.60;;;;;;;25.37;67.64;100689.35;1735020;82;20968;-38
2021/06/17 07:32:18;;;;;;;3.25;3.05;;;;;;;25.53;66.63;100695.69;1735284;82;21007;-38
2021/06/17 07:34:46;;;;;;;5.22;2.77;;;;;;;25.54;65.08;100695.55;1735377;82;20945;-37
2021/06/17 07:37:13;;;;;;;7.72;3.45;;;;;;;25.55;65.19;100691.10;1735337;82;21130;-38
2021/06/17 07:39:39;;;;;;;3.33;3.02;;;;;;;25.54;64.59;100690.25;1735501;82;20992;-37
2021/06/17 07:42:07;;;;;;;4.42;2.75;;;;;;;25.54;64.39;100680.97;1735215;82;20937;-37
2021/06/17 07:44:34;;;;;;;10.13;3.40;;;;;;;25.56;65.03;100689.28;1735164;82;20960;-39
2021/06/17 07:47:00;;;;;;;7.40;2.98;;;;;;;25.57;65.00;100674.60;1735412;82;21008;-37
2021/06/17 07:49:27;;;;;;;6.08;3.02;;;;;;;25.61;64.65;100679.16;1735406;82;21134;-37
2021/06/17 07:51:53;;;;;;;3.72;2.50;;;;;;;25.65;64.55;100654.13;1735349;82;20917;-36
2021/06/17 07:54:20;;;;;;;4.33;2.92;;;;;;;25.74;63.90;100657.36;1735323;82;20973;-37
2021/06/17 07:56:48;;;;;;;4.55;2.75;;;;;;;25.93;63.60;100652.73;1735355;82;21486;-36
2021/06/17 07:59:18;;;;;;;2.47;2.30;;;;;;;26.22;64.46;100654.03;1735322;82;20976;-37
2021/06/17 08:01:50;;;;;;;3.72;2.70;;;;;;;26.48;60.90;100673.59;1746012;80;21072;-37
2021/06/17 08:04:20;;;;;;;7.58;2.50;;;;;;;26.56;60.20;100667.16;1749198;82;20940;-38
2021/06/17 08:06:48;;;;;;;3.05;2.15;;;;;;;26.54;60.51;100677.05;1749522;82;20972;-38
2021/06/17 08:09:18;;;;;;;5.25;2.40;;;;;;;26.76;60.43;100676.59;1749296;82;20980;-38
2021/06/17 08:11:47;;;;;;;2.95;2.15;;;;;;;26.95;59.32;100676.77;1749279;82;21007;-37
2021/06/17 08:14:22;;;;;;;5.47;2.12;;;;;;;27.06;59.21;100681.64;1749454;82;22117;-37
2021/06/17 08:16:50;;;;;;;5.08;2.22;;;;;;;27.17;57.23;100678.06;1749371;82;20972;-37
2021/06/17 08:19:17;;;;;;;5.17;2.30;;;;;;;27.28;57.82;100683.28;1749264;82;20988;-37
2021/06/17 08:21:44;;;;;;;8.13;3.05;;;;;;;27.28;57.00;100677.15;1749394;82;20972;-37
2021/06/17 08:24:10;;;;;;;5.87;2.30;;;;;;;27.30;57.18;100675.20;1749262;82;20939;-37
2021/06/17 08:26:37;;;;;;;2.65;2.30;;;;;;;27.30;56.37;100667.23;1749221;82;21140;-36
2021/06/17 08:29:04;;;;;;;5.25;2.15;;;;;;;27.45;56.59;100664.58;1749315;82;21482;-37
2021/06/17 08:31:31;;;;;;;4.00;2.10;;;;;;;27.45;55.76;100654.42;1749202;82;20929;-37
2021/06/17 08:33:58;;;;;;;7.67;2.30;;;;;;;27.43;56.46;100656.38;1749259;82;20944;-38
2021/06/17 08:36:24;;;;;;;2.45;2.05;;;;;;;27.44;55.76;100647.43;1749637;82;21063;-37
2021/06/17 08:38:51;;;;;;;4.08;2.55;;;;;;;27.16;56.94;100640.05;1749421;82;21880;-37
2021/06/17 08:41:18;;;;;;;7.65;2.60;;;;;;;26.92;57.73;100655.79;1749266;82;21495;-38
2021/06/17 08:43:44;;;;;;;6.08;2.47;;;;;;;26.71;58.71;100658.39;1749219;82;20968;-37
2021/06/17 08:46:11;;;;;;;7.55;2.33;;;;;;;26.46;58.36;100655.13;1749309;82;20951;-38
2021/06/17 08:48:39;;;;;;;10.43;2.45;;;;;;;26.33;59.11;100651.33;1749211;82;21019;-38
2021/06/17 08:51:06;;;;;;;4.65;2.52;;;;;;;26.32;59.62;100646.98;1749259;82;21088;-38
2021/06/17 08:53:34;;;;;;;9.35;2.30;;;;;;;26.31;59.67;100638.67;1749315;82;21506;-38
2021/06/17 08:56:01;;;;;;;6.72;2.50;;;;;;;26.33;58.82;100650.00;1749590;82;20984;-38
2021/06/17 08:58:29;;;;;;;13.18;2.45;;;;;;;26.42;57.18;100636.96;1749346;82;20980;-38
2021/06/17 09:00:55;;;;;;;8.10;2.35;;;;;;;26.44;56.90;100643.80;1749388;80;21019;-38
2021/06/17 09:03:22;;;;;;;9.48;2.40;;;;;;;26.48;57.36;100631.14;1749395;82;21122;-38
2021/06/17 09:05:54;;;;;;;3.90;2.30;;;;;;;26.58;57.93;100632.04;1749448;82;21481;-39
2021/06/17 09:08:29;;;;;;;3.05;2.22;;;;;;;26.67;58.29;100618.48;1749233;82;20983;-38
2021/06/17 09:10:56;;;;;;;8.63;2.33;;;;;;;26.93;56.34;100622.09;1749487;82;20959;-38
2021/06/17 09:13:31;;;;;;;5.92;2.47;;;;;;;27.03;55.81;100610.20;1749201;82;20952;-36
2021/06/17 09:15:58;;;;;;;6.28;2.90;;;;;;;27.16;56.55;100617.95;1749548;82;21778;-38
2021/06/17 09:18:39;;;;;;;5.50;2.52;;;;;;;27.18;56.17;100605.38;1749254;82;21501;-37
2021/06/17 09:21:05;;;;;;;9.15;2.47;;;;;;;27.20;56.20;100609.59;1748327;82;20971;-37
2021/06/17 09:23:44;;;;;;;2.83;2.50;;;;;;;27.21;56.49;100598.46;1748733;82;21003;-37
2021/06/17 09:26:21;;;;;;;8.78;2.62;;;;;;;27.06;56.19;100605.95;1749211;82;20944;-40
2021/06/17 09:29:04;;;;;;;8.75;2.20;;;;;;;26.85;56.10;100614.78;1749183;82;21110;-38
2021/06/17 09:31:36;;;;;;;2.87;2.20;;;;;;;26.65;55.77;100601.38;1749060;82;20948;-38
2021/06/17 09:34:08;;;;;;;6.17;2.35;;;;;;;26.54;56.78;100598.77;1749092;81;21019;-37
2021/06/17 09:36:35;;;;;;;9.98;2.83;;;;;;;26.47;57.56;100602.92;1749187;82;20936;-39
2021/06/17 09:39:18;;;;;;;7.00;2.62;;;;;;;26.44;58.69;100597.38;1749280;82;21584;-38
2021/06/17 09:41:50;;;;;;;7.05;2.70;;;;;;;26.50;59.08;100600.00;1747492;82;21335;-38
2021/06/17 09:44:37;;;;;;;6.53;2.42;;;;;;;26.61;59.56;100601.25;1749535;82;20952;-37
2021/06/17 09:47:22;;;;;;;5.37;2.65;;;;;;;26.88;58.85;100600.41;1749183;82;21366;-39
2021/06/17 09:49:46;;;;;;;8.65;2.80;;;;;;;27.17;56.15;100605.88;1748622;82;21533;-37
2021/06/17 09:52:14;;;;;;;9.13;3.12;;;;;;;27.14;55.57;100603.46;1749200;82;20929;-38
2021/06/17 09:54:43;;;;;;;11.28;2.40;;;;;;;27.00;56.13;100617.11;1749462;82;21592;-36
2021/06/17 09:57:19;;;;;;;4.20;2.20;;;;;;;26.89;56.26;100621.50;1749160;82;20980;-37
2021/06/17 09:59:50;;;;;;;4.10;2.55;;;;;;;26.82;56.80;100617.67;1748798;81;21505;-38
2021/06/17 10:02:24;;;;;;;4.25;2.70;;;;;;;26.71;56.89;100620.41;1749145;82;21493;-38
2021/06/17 10:05:16;;;;;;;5.40;2.58;;;;;;;26.61;57.44;100625.64;1749341;82;20983;-38
2021/06/17 10:07:43;;;;;;;6.75;2.27;;;;;;;26.48;58.18;100632.47;1749246;82;21146;-37
2021/06/17 10:10:12;;;;;;;6.78;2.75;;;;;;;26.36;58.54;100638.30;1749141;82;21545;-37
2021/06/17 10:12:40;;;;;;;4.58;2.70;;;;;;;26.25;59.21;100642.67;1742993;82;20955;-37
2021/06/17 10:15:08;;;;;;;2.58;2.35;;;;;;;26.19;58.45;100646.33;1748499;82;20944;-38
2021/06/17 10:17:34;;;;;;;1.98;1.87;;;;;;;26.14;56.29;100636.52;1749435;82;20845;-37
2021/06/17 10:20:08;;;;;;;5.17;2.40;;;;;;;25.99;56.95;100643.45;1749851;82;21080;-38
2021/06/17 10:22:36;;;;;;;8.48;2.52;;;;;;;25.94;57.31;100649.12;1742425;82;20845;-37
2021/06/17 10:25:08;;;;;;;5.83;2.75;;;;;;;25.90;58.08;100651.66;1726920;82;21423;-37
2021/06/17 10:27:44;;;;;;;5.75;2.50;;;;;;;25.88;58.40;100660.23;1749811;82;21012;-37
2021/06/17 10:30:12;;;;;;;4.65;2.12;;;;;;;25.87;59.05;100669.14;1749760;82;21613;-37
2021/06/17 10:32:43;;;;;;;3.87;2.65;;;;;;;25.88;59.38;100663.34;1750064;82;21098;-37
2021/06/17 10:35:09;;;;;;;7.20;2.50;;;;;;;25.92;59.74;100670.94;1749622;82;20936;-37
2021/06/17 10:37:52;;;;;;;3.62;2.00;;;;;;;26.04;59.72;100670.44;1749787;82;20920;-38
2021/06/17 10:40:24;;;;;;;2.20;2.00;;;;;;;26.32;58.29;100672.69;1749621;82;20936;-37
2021/06/17 10:42:51;;;;;;;2.92;2.25;;;;;;;26.65;55.60;100671.72;1749567;81;20897;-37
2021/06/17 10:45:37;;;;;;;3.70;2.15;;;;;;;26.89;55.73;100675.11;1749705;82;21156;-37
2021/06/17 10:48:13;;;;;;;10.90;2.72;;;;;;;27.05;55.56;100674.17;1749723;82;21097;-38
2021/06/17 10:50:47;;;;;;;8.63;2.58;;;;;;;27.18;54.36;100671.78;1749584;82;21486;-36
2021/06/17 10:53:32;;;;;;;10.25;2.90;;;;;;;27.14;54.86;100677.83;1749175;82;20968;-38
2021/06/17 10:56:05;;;;;;;6.22;2.35;;;;;;;27.13;54.83;100676.15;1748090;82;20933;-37
2021/06/17 10:58:49;;;;;;;11.15;2.40;;;;;;;26.99;54.94;100678.66;1749125;82;21128;-37
2021/06/17 11:01:42;;;;;;;2.27;2.00;;;;;;;26.84;55.34;100691.38;1749165;82;21625;-37
2021/06/17 11:04:18;;;;;;;4.62;1.80;;;;;;;26.72;56.47;100687.12;1749196;82;20944;-38
2021/06/17 11:06:55;;;;;;;3.00;2.00;;;;;;;26.58;55.61;100678.98;1749232;82;20873;-38
2021/06/17 11:09:49;;;;;;;5.12;2.20;;;;;;;26.51;54.89;100679.97;1672530;85;21022;-38
2021/06/17 11:12:26;;;;;;;4.70;2.02;;;;;;;26.61;55.65;100679.55;1749138;82;21141;-38
2021/06/17 11:14:56;;;;;;;6.42;1.80;;;;;;;27.13;55.19;100686.77;1749219;82;20928;-38
2021/06/17 11:17:33;;;;;;;4.83;1.92;;;;;;;27.66;54.88;100671.66;1749167;82;20928;-37
2021/06/17 11:20:19;;;;;;;3.58;2.08;;;;;;;28.17;53.28;100678.34;1749111;81;21012;-36
2021/06/17 11:22:59;;;;;;;3.27;1.80;;;;;;;28.34;51.71;100678.97;1749132;81;20975;-37
2021/06/17 11:25:30;;;;;;;4.60;2.10;;;;;;;28.38;51.31;100680.36;1749388;82;22150;-38
2021/06/17 11:28:09;;;;;;;3.55;1.75;;;;;;;28.32;51.87;100678.27;1749338;82;20932;-37
2021/06/17 11:30:46;;;;;;;2.27;1.80;;;;;;;28.29;51.36;100670.56;1749359;80;20904;-38
2021/06/17 11:33:24;;;;;;;4.85;1.92;;;;;;;28.35;51.26;100668.67;1749239;82;20964;-37
2021/06/17 11:35:58;;;;;;;2.22;2.02;;;;;;;28.37;51.54;100662.71;1749400;81;20948;-39
2021/06/17 11:38:28;;;;;;;;;;;;;;;28.53;50.96;100663.98;1752012;82;21166;-37
2021/06/17 11:40:55;;;;;;;10.23;1.92;;;;;;;28.59;49.65;100648.77;1749490;82;20167;-37